sensor_id;sensor_type;location;lat;lon;timestamp;P1;durP1;ratioP1;P2;durP2;ratioP2
14191;SDS011;7177;48.572;7.838;2024-01-06T00:01:59;25.87;;;20.50;;
14191;SDS011;7177;48.572;7.838;2024-01-06T00:04:25;25.17;;;18.77;;
14191;SDS011;7177;48.572;7.838;2024-01-06T00:06:50;32.00;;;22.07;;
14191;SDS011;7177;48.572;7.838;2024-01-06T00:09:16;28.43;;;20.00;;
14191;SDS011;7177;48.572;7.838;2024-01-06T00:11:41;25.13;;;20.33;;
14191;SDS011;7177;48.572;7.838;2024-01-06T00:14:06;23.60;;;17.33;;
14191;SDS011;7177;48.572;7.838;2024-01-06T00:16:32;22.93;;;15.43;;
14191;SDS011;7177;48.572;7.838;2024-01-06T00:18:57;22.77;;;14.77;;
14191;SDS011;7177;48.572;7.838;2024-01-06T00:21:24;17.92;;;13.40;;
14191;SDS011;7177;48.572;7.838;2024-01-06T00:23:50;16.53;;;11.43;;
14191;SDS011;7177;48.572;7.838;2024-01-06T00:26:15;13.23;;;8.97;;
14191;SDS011;7177;48.572;7.838;2024-01-06T00:28:41;12.23;;;8.87;;
14191;SDS011;7177;48.572;7.838;2024-01-06T00:31:06;10.90;;;6.03;;
14191;SDS011;7177;48.572;7.838;2024-01-06T00:33:32;13.87;;;6.13;;
14191;SDS011;7177;48.572;7.838;2024-01-06T00:35:57;13.60;;;5.40;;
14191;SDS011;7177;48.572;7.838;2024-01-06T00:38:23;10.30;;;4.80;;
14191;SDS011;7177;48.572;7.838;2024-01-06T00:40:49;6.57;;;4.37;;
14191;SDS011;7177;48.572;7.838;2024-01-06T00:43:14;9.00;;;4.10;;
14191;SDS011;7177;48.572;7.838;2024-01-06T00:45:40;6.43;;;4.23;;
14191;SDS011;7177;48.572;7.838;2024-01-06T00:48:06;9.43;;;4.13;;
14191;SDS011;7177;48.572;7.838;2024-01-06T00:50:31;8.87;;;4.10;;
14191;SDS011;7177;48.572;7.838;2024-01-06T00:52:57;8.30;;;3.63;;
14191;SDS011;7177;48.572;7.838;2024-01-06T00:55:22;7.43;;;4.20;;
14191;SDS011;7177;48.572;7.838;2024-01-06T00:57:48;13.17;;;4.73;;
14191;SDS011;7177;48.572;7.838;2024-01-06T01:00:14;13.70;;;4.37;;
14191;SDS011;7177;48.572;7.838;2024-01-06T01:02:40;10.43;;;3.60;;
14191;SDS011;7177;48.572;7.838;2024-01-06T01:05:05;10.53;;;4.03;;
14191;SDS011;7177;48.572;7.838;2024-01-06T01:07:34;11.27;;;4.13;;
14191;SDS011;7177;48.572;7.838;2024-01-06T01:10:00;8.43;;;3.67;;
14191;SDS011;7177;48.572;7.838;2024-01-06T01:12:26;8.23;;;3.13;;
14191;SDS011;7177;48.572;7.838;2024-01-06T01:14:51;6.53;;;3.20;;
14191;SDS011;7177;48.572;7.838;2024-01-06T01:17:18;5.40;;;2.60;;
14191;SDS011;7177;48.572;7.838;2024-01-06T01:19:43;8.30;;;3.00;;
14191;SDS011;7177;48.572;7.838;2024-01-06T01:22:09;6.83;;;3.30;;
14191;SDS011;7177;48.572;7.838;2024-01-06T01:24:35;7.07;;;3.40;;
14191;SDS011;7177;48.572;7.838;2024-01-06T01:27:00;7.33;;;3.43;;
14191;SDS011;7177;48.572;7.838;2024-01-06T01:29:26;4.77;;;2.87;;
14191;SDS011;7177;48.572;7.838;2024-01-06T01:31:51;4.57;;;2.83;;
14191;SDS011;7177;48.572;7.838;2024-01-06T01:34:17;6.63;;;3.30;;
14191;SDS011;7177;48.572;7.838;2024-01-06T01:36:42;5.30;;;2.97;;
14191;SDS011;7177;48.572;7.838;2024-01-06T01:39:08;8.83;;;3.30;;
14191;SDS011;7177;48.572;7.838;2024-01-06T01:41:34;6.07;;;3.30;;
14191;SDS011;7177;48.572;7.838;2024-01-06T01:44:00;6.03;;;3.27;;
14191;SDS011;7177;48.572;7.838;2024-01-06T01:46:26;6.37;;;3.40;;
14191;SDS011;7177;48.572;7.838;2024-01-06T01:48:56;5.90;;;3.60;;
14191;SDS011;7177;48.572;7.838;2024-01-06T01:51:22;5.70;;;3.13;;
14191;SDS011;7177;48.572;7.838;2024-01-06T01:53:50;6.50;;;3.10;;
14191;SDS011;7177;48.572;7.838;2024-01-06T01:56:16;8.03;;;3.50;;
14191;SDS011;7177;48.572;7.838;2024-01-06T01:58:42;24.13;;;11.73;;
14191;SDS011;7177;48.572;7.838;2024-01-06T02:01:08;17.90;;;8.83;;
14191;SDS011;7177;48.572;7.838;2024-01-06T02:03:34;13.97;;;5.97;;
14191;SDS011;7177;48.572;7.838;2024-01-06T02:06:00;8.73;;;3.60;;
14191;SDS011;7177;48.572;7.838;2024-01-06T02:08:26;7.03;;;3.50;;
14191;SDS011;7177;48.572;7.838;2024-01-06T02:10:54;4.47;;;3.30;;
14191;SDS011;7177;48.572;7.838;2024-01-06T02:13:21;6.67;;;4.00;;
14191;SDS011;7177;48.572;7.838;2024-01-06T02:15:47;6.63;;;3.83;;
14191;SDS011;7177;48.572;7.838;2024-01-06T02:18:13;9.40;;;4.90;;
14191;SDS011;7177;48.572;7.838;2024-01-06T02:20:38;7.37;;;4.90;;
14191;SDS011;7177;48.572;7.838;2024-01-06T02:23:07;8.30;;;5.50;;
14191;SDS011;7177;48.572;7.838;2024-01-06T02:25:33;7.40;;;5.87;;
14191;SDS011;7177;48.572;7.838;2024-01-06T02:28:00;10.77;;;6.37;;
14191;SDS011;7177;48.572;7.838;2024-01-06T02:30:25;10.27;;;7.33;;
14191;SDS011;7177;48.572;7.838;2024-01-06T02:32:51;12.33;;;7.70;;
14191;SDS011;7177;48.572;7.838;2024-01-06T02:35:16;11.53;;;8.13;;
14191;SDS011;7177;48.572;7.838;2024-01-06T02:37:42;11.67;;;7.87;;
14191;SDS011;7177;48.572;7.838;2024-01-06T02:40:08;11.13;;;8.40;;
14191;SDS011;7177;48.572;7.838;2024-01-06T02:42:34;10.30;;;7.73;;
14191;SDS011;7177;48.572;7.838;2024-01-06T02:44:59;12.77;;;8.63;;
14191;SDS011;7177;48.572;7.838;2024-01-06T02:47:25;13.63;;;8.90;;
14191;SDS011;7177;48.572;7.838;2024-01-06T02:49:50;11.43;;;8.87;;
14191;SDS011;7177;48.572;7.838;2024-01-06T02:52:16;11.77;;;8.97;;
14191;SDS011;7177;48.572;7.838;2024-01-06T02:54:41;11.33;;;8.20;;
14191;SDS011;7177;48.572;7.838;2024-01-06T02:57:07;12.03;;;8.63;;
14191;SDS011;7177;48.572;7.838;2024-01-06T02:59:32;10.93;;;8.97;;
14191;SDS011;7177;48.572;7.838;2024-01-06T03:01:59;14.35;;;8.93;;
14191;SDS011;7177;48.572;7.838;2024-01-06T03:04:25;10.82;;;8.90;;
14191;SDS011;7177;48.572;7.838;2024-01-06T03:06:51;12.27;;;8.53;;
14191;SDS011;7177;48.572;7.838;2024-01-06T03:09:18;9.93;;;8.30;;
14191;SDS011;7177;48.572;7.838;2024-01-06T03:11:44;10.27;;;8.65;;
14191;SDS011;7177;48.572;7.838;2024-01-06T03:14:10;11.33;;;9.40;;
14191;SDS011;7177;48.572;7.838;2024-01-06T03:16:35;11.23;;;8.67;;
14191;SDS011;7177;48.572;7.838;2024-01-06T03:19:01;11.37;;;8.13;;
14191;SDS011;7177;48.572;7.838;2024-01-06T03:21:26;9.87;;;7.80;;
14191;SDS011;7177;48.572;7.838;2024-01-06T03:23:52;10.80;;;7.63;;
14191;SDS011;7177;48.572;7.838;2024-01-06T03:26:20;10.55;;;8.02;;
14191;SDS011;7177;48.572;7.838;2024-01-06T03:28:45;10.10;;;7.47;;
14191;SDS011;7177;48.572;7.838;2024-01-06T03:31:11;8.57;;;7.13;;
14191;SDS011;7177;48.572;7.838;2024-01-06T03:33:36;14.10;;;8.30;;
14191;SDS011;7177;48.572;7.838;2024-01-06T03:36:05;11.10;;;7.77;;
14191;SDS011;7177;48.572;7.838;2024-01-06T03:38:31;11.37;;;7.47;;
14191;SDS011;7177;48.572;7.838;2024-01-06T03:40:57;13.53;;;8.90;;
14191;SDS011;7177;48.572;7.838;2024-01-06T03:43:22;19.25;;;10.65;;
14191;SDS011;7177;48.572;7.838;2024-01-06T03:45:48;21.60;;;11.80;;
14191;SDS011;7177;48.572;7.838;2024-01-06T03:48:13;19.23;;;11.00;;
14191;SDS011;7177;48.572;7.838;2024-01-06T03:50:39;26.47;;;14.83;;
14191;SDS011;7177;48.572;7.838;2024-01-06T03:53:04;20.70;;;12.53;;
14191;SDS011;7177;48.572;7.838;2024-01-06T03:55:30;15.97;;;11.20;;
14191;SDS011;7177;48.572;7.838;2024-01-06T03:57:55;37.87;;;20.37;;
14191;SDS011;7177;48.572;7.838;2024-01-06T04:00:21;35.40;;;20.47;;
14191;SDS011;7177;48.572;7.838;2024-01-06T04:02:47;46.57;;;24.60;;
14191;SDS011;7177;48.572;7.838;2024-01-06T04:05:12;37.87;;;22.47;;
14191;SDS011;7177;48.572;7.838;2024-01-06T04:07:38;34.00;;;19.50;;
14191;SDS011;7177;48.572;7.838;2024-01-06T04:10:03;28.77;;;15.80;;
14191;SDS011;7177;48.572;7.838;2024-01-06T04:12:29;25.33;;;15.33;;
14191;SDS011;7177;48.572;7.838;2024-01-06T04:14:54;23.87;;;14.17;;
14191;SDS011;7177;48.572;7.838;2024-01-06T04:17:20;20.67;;;13.23;;
14191;SDS011;7177;48.572;7.838;2024-01-06T04:19:45;14.63;;;9.87;;
14191;SDS011;7177;48.572;7.838;2024-01-06T04:22:11;13.67;;;9.57;;
14191;SDS011;7177;48.572;7.838;2024-01-06T04:24:36;14.93;;;10.23;;
14191;SDS011;7177;48.572;7.838;2024-01-06T04:27:03;14.90;;;9.73;;
14191;SDS011;7177;48.572;7.838;2024-01-06T04:29:29;13.40;;;9.10;;
14191;SDS011;7177;48.572;7.838;2024-01-06T04:31:55;10.07;;;8.67;;
14191;SDS011;7177;48.572;7.838;2024-01-06T04:34:20;11.37;;;8.33;;
14191;SDS011;7177;48.572;7.838;2024-01-06T04:36:46;12.93;;;9.50;;
14191;SDS011;7177;48.572;7.838;2024-01-06T04:39:11;11.73;;;9.53;;
14191;SDS011;7177;48.572;7.838;2024-01-06T04:41:38;12.63;;;9.20;;
14191;SDS011;7177;48.572;7.838;2024-01-06T04:44:05;14.17;;;9.40;;
14191;SDS011;7177;48.572;7.838;2024-01-06T04:46:30;11.07;;;8.23;;
14191;SDS011;7177;48.572;7.838;2024-01-06T04:48:56;11.97;;;8.77;;
14191;SDS011;7177;48.572;7.838;2024-01-06T04:51:22;12.17;;;8.47;;
14191;SDS011;7177;48.572;7.838;2024-01-06T04:53:47;14.97;;;9.03;;
14191;SDS011;7177;48.572;7.838;2024-01-06T04:56:13;9.67;;;8.60;;
14191;SDS011;7177;48.572;7.838;2024-01-06T04:58:38;13.40;;;9.23;;
14191;SDS011;7177;48.572;7.838;2024-01-06T05:01:04;13.03;;;9.70;;
14191;SDS011;7177;48.572;7.838;2024-01-06T05:03:30;10.10;;;8.60;;
14191;SDS011;7177;48.572;7.838;2024-01-06T05:05:55;11.13;;;8.90;;
14191;SDS011;7177;48.572;7.838;2024-01-06T05:08:21;11.80;;;8.57;;
14191;SDS011;7177;48.572;7.838;2024-01-06T05:10:47;14.75;;;9.68;;
14191;SDS011;7177;48.572;7.838;2024-01-06T05:13:13;8.70;;;7.30;;
14191;SDS011;7177;48.572;7.838;2024-01-06T05:15:39;9.50;;;7.80;;
14191;SDS011;7177;48.572;7.838;2024-01-06T05:18:05;9.03;;;7.70;;
14191;SDS011;7177;48.572;7.838;2024-01-06T05:20:30;9.80;;;7.97;;
14191;SDS011;7177;48.572;7.838;2024-01-06T05:22:56;12.63;;;9.57;;
14191;SDS011;7177;48.572;7.838;2024-01-06T05:25:21;13.63;;;9.60;;
14191;SDS011;7177;48.572;7.838;2024-01-06T05:27:47;16.00;;;10.73;;
14191;SDS011;7177;48.572;7.838;2024-01-06T05:30:12;12.43;;;9.23;;
14191;SDS011;7177;48.572;7.838;2024-01-06T05:32:38;13.70;;;9.80;;
14191;SDS011;7177;48.572;7.838;2024-01-06T05:35:04;10.37;;;7.97;;
14191;SDS011;7177;48.572;7.838;2024-01-06T05:37:29;9.50;;;8.13;;
14191;SDS011;7177;48.572;7.838;2024-01-06T05:39:56;13.13;;;9.67;;
14191;SDS011;7177;48.572;7.838;2024-01-06T05:42:26;11.23;;;9.80;;
14191;SDS011;7177;48.572;7.838;2024-01-06T05:44:51;12.73;;;9.03;;
14191;SDS011;7177;48.572;7.838;2024-01-06T05:47:17;11.43;;;9.03;;
14191;SDS011;7177;48.572;7.838;2024-01-06T05:49:43;10.57;;;8.73;;
14191;SDS011;7177;48.572;7.838;2024-01-06T05:52:09;12.18;;;8.93;;
14191;SDS011;7177;48.572;7.838;2024-01-06T05:54:35;11.93;;;9.47;;
14191;SDS011;7177;48.572;7.838;2024-01-06T05:57:00;12.03;;;9.70;;
14191;SDS011;7177;48.572;7.838;2024-01-06T05:59:26;13.60;;;9.97;;
14191;SDS011;7177;48.572;7.838;2024-01-06T06:01:51;11.33;;;9.13;;
14191;SDS011;7177;48.572;7.838;2024-01-06T06:04:17;11.10;;;9.63;;
14191;SDS011;7177;48.572;7.838;2024-01-06T06:06:43;14.03;;;10.53;;
14191;SDS011;7177;48.572;7.838;2024-01-06T06:09:09;12.73;;;10.37;;
14191;SDS011;7177;48.572;7.838;2024-01-06T06:11:35;13.40;;;10.43;;
14191;SDS011;7177;48.572;7.838;2024-01-06T06:14:01;13.73;;;9.80;;
14191;SDS011;7177;48.572;7.838;2024-01-06T06:16:28;14.32;;;10.57;;
14191;SDS011;7177;48.572;7.838;2024-01-06T06:18:53;13.90;;;9.90;;
14191;SDS011;7177;48.572;7.838;2024-01-06T06:21:20;14.05;;;10.00;;
14191;SDS011;7177;48.572;7.838;2024-01-06T06:23:45;17.03;;;10.53;;
14191;SDS011;7177;48.572;7.838;2024-01-06T06:26:11;13.73;;;11.27;;
14191;SDS011;7177;48.572;7.838;2024-01-06T06:28:36;16.33;;;10.93;;
14191;SDS011;7177;48.572;7.838;2024-01-06T06:31:02;13.10;;;10.23;;
14191;SDS011;7177;48.572;7.838;2024-01-06T06:33:28;15.73;;;10.27;;
14191;SDS011;7177;48.572;7.838;2024-01-06T06:35:54;12.55;;;9.52;;
14191;SDS011;7177;48.572;7.838;2024-01-06T06:38:20;13.30;;;11.00;;
14191;SDS011;7177;48.572;7.838;2024-01-06T06:40:46;13.60;;;9.80;;
14191;SDS011;7177;48.572;7.838;2024-01-06T06:43:12;11.67;;;9.63;;
14191;SDS011;7177;48.572;7.838;2024-01-06T06:45:38;13.35;;;9.70;;
14191;SDS011;7177;48.572;7.838;2024-01-06T06:48:04;15.30;;;10.90;;
14191;SDS011;7177;48.572;7.838;2024-01-06T06:50:29;15.20;;;11.38;;
14191;SDS011;7177;48.572;7.838;2024-01-06T06:52:55;14.13;;;10.13;;
14191;SDS011;7177;48.572;7.838;2024-01-06T06:55:21;13.60;;;10.57;;
14191;SDS011;7177;48.572;7.838;2024-01-06T06:57:46;13.97;;;10.43;;
14191;SDS011;7177;48.572;7.838;2024-01-06T07:00:12;14.60;;;10.83;;
14191;SDS011;7177;48.572;7.838;2024-01-06T07:02:37;16.80;;;11.57;;
14191;SDS011;7177;48.572;7.838;2024-01-06T07:05:03;13.73;;;9.50;;
14191;SDS011;7177;48.572;7.838;2024-01-06T07:07:31;13.88;;;9.70;;
14191;SDS011;7177;48.572;7.838;2024-01-06T07:09:58;11.25;;;9.20;;
14191;SDS011;7177;48.572;7.838;2024-01-06T07:12:25;11.23;;;8.32;;
14191;SDS011;7177;48.572;7.838;2024-01-06T07:14:52;13.57;;;8.32;;
14191;SDS011;7177;48.572;7.838;2024-01-06T07:17:17;12.57;;;8.70;;
14191;SDS011;7177;48.572;7.838;2024-01-06T07:19:43;12.37;;;7.13;;
14191;SDS011;7177;48.572;7.838;2024-01-06T07:22:08;10.33;;;7.20;;
14191;SDS011;7177;48.572;7.838;2024-01-06T07:24:34;11.33;;;7.80;;
14191;SDS011;7177;48.572;7.838;2024-01-06T07:27:01;9.07;;;6.53;;
14191;SDS011;7177;48.572;7.838;2024-01-06T07:29:28;12.37;;;7.13;;
14191;SDS011;7177;48.572;7.838;2024-01-06T07:31:53;9.50;;;6.83;;
14191;SDS011;7177;48.572;7.838;2024-01-06T07:34:19;7.40;;;6.03;;
14191;SDS011;7177;48.572;7.838;2024-01-06T07:36:44;9.20;;;6.77;;
14191;SDS011;7177;48.572;7.838;2024-01-06T07:39:10;8.93;;;6.07;;
14191;SDS011;7177;48.572;7.838;2024-01-06T07:41:35;9.07;;;6.23;;
14191;SDS011;7177;48.572;7.838;2024-01-06T07:44:01;13.97;;;5.70;;
14191;SDS011;7177;48.572;7.838;2024-01-06T07:46:27;9.40;;;5.30;;
14191;SDS011;7177;48.572;7.838;2024-01-06T07:48:53;8.40;;;6.90;;
14191;SDS011;7177;48.572;7.838;2024-01-06T07:51:19;10.03;;;6.97;;
14191;SDS011;7177;48.572;7.838;2024-01-06T07:53:45;11.20;;;7.70;;
14191;SDS011;7177;48.572;7.838;2024-01-06T07:56:10;9.77;;;6.80;;
14191;SDS011;7177;48.572;7.838;2024-01-06T07:58:36;11.27;;;6.90;;
14191;SDS011;7177;48.572;7.838;2024-01-06T08:01:01;12.53;;;6.60;;
14191;SDS011;7177;48.572;7.838;2024-01-06T08:03:27;9.70;;;6.00;;
14191;SDS011;7177;48.572;7.838;2024-01-06T08:05:52;8.97;;;6.03;;
14191;SDS011;7177;48.572;7.838;2024-01-06T08:08:19;13.23;;;8.23;;
14191;SDS011;7177;48.572;7.838;2024-01-06T08:10:44;12.53;;;8.47;;
14191;SDS011;7177;48.572;7.838;2024-01-06T08:13:10;12.50;;;7.57;;
14191;SDS011;7177;48.572;7.838;2024-01-06T08:15:36;10.83;;;8.07;;
14191;SDS011;7177;48.572;7.838;2024-01-06T08:18:01;8.33;;;7.20;;
14191;SDS011;7177;48.572;7.838;2024-01-06T08:20:28;9.23;;;7.30;;
14191;SDS011;7177;48.572;7.838;2024-01-06T08:22:54;9.60;;;6.93;;
14191;SDS011;7177;48.572;7.838;2024-01-06T08:25:20;12.03;;;6.90;;
14191;SDS011;7177;48.572;7.838;2024-01-06T08:27:45;8.20;;;6.20;;
14191;SDS011;7177;48.572;7.838;2024-01-06T08:30:11;7.77;;;6.97;;
14191;SDS011;7177;48.572;7.838;2024-01-06T08:32:37;10.03;;;7.60;;
14191;SDS011;7177;48.572;7.838;2024-01-06T08:35:03;14.33;;;7.33;;
14191;SDS011;7177;48.572;7.838;2024-01-06T08:37:29;8.93;;;7.20;;
14191;SDS011;7177;48.572;7.838;2024-01-06T08:39:54;9.10;;;7.20;;
14191;SDS011;7177;48.572;7.838;2024-01-06T08:42:20;10.83;;;7.07;;
14191;SDS011;7177;48.572;7.838;2024-01-06T08:44:46;11.40;;;7.90;;
14191;SDS011;7177;48.572;7.838;2024-01-06T08:47:12;9.70;;;7.70;;
14191;SDS011;7177;48.572;7.838;2024-01-06T08:49:37;11.13;;;7.73;;
14191;SDS011;7177;48.572;7.838;2024-01-06T08:52:03;9.77;;;7.53;;
14191;SDS011;7177;48.572;7.838;2024-01-06T08:54:30;12.10;;;7.80;;
14191;SDS011;7177;48.572;7.838;2024-01-06T08:56:56;11.00;;;7.93;;
14191;SDS011;7177;48.572;7.838;2024-01-06T08:59:22;10.63;;;8.00;;
14191;SDS011;7177;48.572;7.838;2024-01-06T09:01:47;11.47;;;7.97;;
14191;SDS011;7177;48.572;7.838;2024-01-06T09:04:13;11.03;;;7.57;;
14191;SDS011;7177;48.572;7.838;2024-01-06T09:06:38;8.03;;;6.93;;
14191;SDS011;7177;48.572;7.838;2024-01-06T09:09:04;13.33;;;8.13;;
14191;SDS011;7177;48.572;7.838;2024-01-06T09:11:30;8.93;;;7.20;;
14191;SDS011;7177;48.572;7.838;2024-01-06T09:13:56;9.10;;;7.33;;
14191;SDS011;7177;48.572;7.838;2024-01-06T09:16:21;11.73;;;7.30;;
14191;SDS011;7177;48.572;7.838;2024-01-06T09:18:47;9.70;;;7.53;;
14191;SDS011;7177;48.572;7.838;2024-01-06T09:21:14;10.57;;;8.23;;
14191;SDS011;7177;48.572;7.838;2024-01-06T09:23:40;8.37;;;6.70;;
14191;SDS011;7177;48.572;7.838;2024-01-06T09:26:05;8.30;;;7.27;;
14191;SDS011;7177;48.572;7.838;2024-01-06T09:28:31;9.20;;;8.00;;
14191;SDS011;7177;48.572;7.838;2024-01-06T09:30:57;9.40;;;8.13;;
14191;SDS011;7177;48.572;7.838;2024-01-06T09:33:22;10.53;;;8.80;;
14191;SDS011;7177;48.572;7.838;2024-01-06T09:35:48;10.00;;;8.77;;
14191;SDS011;7177;48.572;7.838;2024-01-06T09:38:14;10.23;;;9.13;;
14191;SDS011;7177;48.572;7.838;2024-01-06T09:40:42;12.20;;;9.53;;
14191;SDS011;7177;48.572;7.838;2024-01-06T09:43:09;12.57;;;9.57;;
14191;SDS011;7177;48.572;7.838;2024-01-06T09:45:36;12.33;;;9.30;;
14191;SDS011;7177;48.572;7.838;2024-01-06T09:48:04;14.00;;;9.37;;
14191;SDS011;7177;48.572;7.838;2024-01-06T09:50:36;16.23;;;10.17;;
14191;SDS011;7177;48.572;7.838;2024-01-06T09:53:03;14.50;;;9.70;;
14191;SDS011;7177;48.572;7.838;2024-01-06T09:55:31;15.50;;;8.53;;
14191;SDS011;7177;48.572;7.838;2024-01-06T09:57:57;12.53;;;9.47;;
14191;SDS011;7177;48.572;7.838;2024-01-06T10:00:23;15.37;;;10.07;;
14191;SDS011;7177;48.572;7.838;2024-01-06T10:02:48;10.73;;;9.53;;
14191;SDS011;7177;48.572;7.838;2024-01-06T10:05:16;16.43;;;10.63;;
14191;SDS011;7177;48.572;7.838;2024-01-06T10:07:42;15.40;;;9.43;;
14191;SDS011;7177;48.572;7.838;2024-01-06T10:10:11;18.03;;;9.63;;
14191;SDS011;7177;48.572;7.838;2024-01-06T10:12:37;9.93;;;7.77;;
14191;SDS011;7177;48.572;7.838;2024-01-06T10:15:04;8.53;;;7.30;;
14191;SDS011;7177;48.572;7.838;2024-01-06T10:17:31;11.40;;;7.93;;
14191;SDS011;7177;48.572;7.838;2024-01-06T10:19:57;9.67;;;7.97;;
14191;SDS011;7177;48.572;7.838;2024-01-06T10:22:23;10.90;;;8.27;;
14191;SDS011;7177;48.572;7.838;2024-01-06T10:24:49;11.57;;;7.73;;
14191;SDS011;7177;48.572;7.838;2024-01-06T10:27:14;12.20;;;8.43;;
14191;SDS011;7177;48.572;7.838;2024-01-06T10:29:41;22.50;;;13.77;;
14191;SDS011;7177;48.572;7.838;2024-01-06T10:32:07;10.80;;;8.30;;
14191;SDS011;7177;48.572;7.838;2024-01-06T10:34:33;12.37;;;8.63;;
14191;SDS011;7177;48.572;7.838;2024-01-06T10:37:01;10.70;;;7.90;;
14191;SDS011;7177;48.572;7.838;2024-01-06T10:39:27;12.13;;;9.77;;
14191;SDS011;7177;48.572;7.838;2024-01-06T10:41:54;8.67;;;6.67;;
14191;SDS011;7177;48.572;7.838;2024-01-06T10:44:21;8.17;;;6.00;;
14191;SDS011;7177;48.572;7.838;2024-01-06T10:46:48;7.93;;;5.30;;
14191;SDS011;7177;48.572;7.838;2024-01-06T10:49:15;6.17;;;5.50;;
14191;SDS011;7177;48.572;7.838;2024-01-06T10:51:42;9.23;;;7.10;;
14191;SDS011;7177;48.572;7.838;2024-01-06T10:54:09;7.20;;;5.57;;
14191;SDS011;7177;48.572;7.838;2024-01-06T10:56:38;12.77;;;8.80;;
14191;SDS011;7177;48.572;7.838;2024-01-06T10:59:03;17.03;;;11.93;;
14191;SDS011;7177;48.572;7.838;2024-01-06T11:01:29;10.43;;;6.20;;
14191;SDS011;7177;48.572;7.838;2024-01-06T11:03:56;7.93;;;5.90;;
14191;SDS011;7177;48.572;7.838;2024-01-06T11:06:22;6.43;;;5.83;;
14191;SDS011;7177;48.572;7.838;2024-01-06T11:11:20;8.47;;;7.00;;
14191;SDS011;7177;48.572;7.838;2024-01-06T11:13:48;8.47;;;5.40;;
14191;SDS011;7177;48.572;7.838;2024-01-06T11:16:33;6.53;;;4.63;;
14191;SDS011;7177;48.572;7.838;2024-01-06T11:18:59;6.40;;;4.47;;
14191;SDS011;7177;48.572;7.838;2024-01-06T11:21:25;7.03;;;4.70;;
14191;SDS011;7177;48.572;7.838;2024-01-06T11:24:09;4.57;;;3.93;;
14191;SDS011;7177;48.572;7.838;2024-01-06T11:26:42;7.97;;;4.80;;
14191;SDS011;7177;48.572;7.838;2024-01-06T11:29:09;6.13;;;4.17;;
14191;SDS011;7177;48.572;7.838;2024-01-06T11:31:36;4.80;;;4.03;;
14191;SDS011;7177;48.572;7.838;2024-01-06T11:34:12;4.40;;;3.90;;
14191;SDS011;7177;48.572;7.838;2024-01-06T11:36:39;4.60;;;4.03;;
14191;SDS011;7177;48.572;7.838;2024-01-06T11:39:05;4.87;;;3.97;;
14191;SDS011;7177;48.572;7.838;2024-01-06T11:41:49;5.67;;;4.53;;
14191;SDS011;7177;48.572;7.838;2024-01-06T11:44:22;5.90;;;4.70;;
14191;SDS011;7177;48.572;7.838;2024-01-06T11:46:48;5.93;;;4.70;;
14191;SDS011;7177;48.572;7.838;2024-01-06T11:49:17;6.17;;;5.10;;
14191;SDS011;7177;48.572;7.838;2024-01-06T11:51:46;7.17;;;5.60;;
14191;SDS011;7177;48.572;7.838;2024-01-06T11:54:11;6.60;;;5.07;;
14191;SDS011;7177;48.572;7.838;2024-01-06T11:56:37;6.43;;;5.10;;
14191;SDS011;7177;48.572;7.838;2024-01-06T11:59:03;6.33;;;4.47;;
14191;SDS011;7177;48.572;7.838;2024-01-06T12:01:36;6.40;;;4.73;;
14191;SDS011;7177;48.572;7.838;2024-01-06T12:04:02;5.00;;;4.50;;
14191;SDS011;7177;48.572;7.838;2024-01-06T12:06:30;5.20;;;4.70;;
14191;SDS011;7177;48.572;7.838;2024-01-06T12:09:09;7.53;;;4.63;;
14191;SDS011;7177;48.572;7.838;2024-01-06T12:11:39;6.03;;;4.83;;
14191;SDS011;7177;48.572;7.838;2024-01-06T12:14:05;6.63;;;5.03;;
14191;SDS011;7177;48.572;7.838;2024-01-06T12:16:31;7.27;;;6.27;;
14191;SDS011;7177;48.572;7.838;2024-01-06T12:18:58;7.00;;;5.23;;
14191;SDS011;7177;48.572;7.838;2024-01-06T12:21:25;7.20;;;6.00;;
14191;SDS011;7177;48.572;7.838;2024-01-06T12:23:52;9.50;;;7.43;;
14191;SDS011;7177;48.572;7.838;2024-01-06T12:26:17;7.03;;;4.90;;
14191;SDS011;7177;48.572;7.838;2024-01-06T12:28:46;6.63;;;5.50;;
14191;SDS011;7177;48.572;7.838;2024-01-06T12:31:13;6.07;;;4.97;;
14191;SDS011;7177;48.572;7.838;2024-01-06T12:33:39;7.67;;;4.90;;
14191;SDS011;7177;48.572;7.838;2024-01-06T12:36:08;7.17;;;5.33;;
14191;SDS011;7177;48.572;7.838;2024-01-06T12:38:36;6.17;;;5.40;;
14191;SDS011;7177;48.572;7.838;2024-01-06T12:41:02;6.67;;;5.97;;
14191;SDS011;7177;48.572;7.838;2024-01-06T12:43:29;7.57;;;5.57;;
14191;SDS011;7177;48.572;7.838;2024-01-06T12:45:54;9.23;;;5.57;;
14191;SDS011;7177;48.572;7.838;2024-01-06T12:48:22;6.43;;;5.83;;
14191;SDS011;7177;48.572;7.838;2024-01-06T12:50:47;5.63;;;5.10;;
14191;SDS011;7177;48.572;7.838;2024-01-06T12:53:13;6.20;;;5.33;;
14191;SDS011;7177;48.572;7.838;2024-01-06T12:55:40;7.47;;;6.20;;
14191;SDS011;7177;48.572;7.838;2024-01-06T12:58:06;5.70;;;5.20;;
14191;SDS011;7177;48.572;7.838;2024-01-06T13:00:33;7.83;;;5.40;;
14191;SDS011;7177;48.572;7.838;2024-01-06T13:02:58;5.50;;;4.97;;
14191;SDS011;7177;48.572;7.838;2024-01-06T13:05:24;5.80;;;5.10;;
14191;SDS011;7177;48.572;7.838;2024-01-06T13:07:50;5.77;;;5.17;;
14191;SDS011;7177;48.572;7.838;2024-01-06T13:10:16;6.77;;;4.97;;
14191;SDS011;7177;48.572;7.838;2024-01-06T13:12:42;5.67;;;5.00;;
14191;SDS011;7177;48.572;7.838;2024-01-06T13:15:07;5.73;;;4.47;;
14191;SDS011;7177;48.572;7.838;2024-01-06T13:17:36;5.83;;;4.97;;
14191;SDS011;7177;48.572;7.838;2024-01-06T13:20:03;7.17;;;5.07;;
14191;SDS011;7177;48.572;7.838;2024-01-06T13:22:29;5.27;;;4.77;;
14191;SDS011;7177;48.572;7.838;2024-01-06T13:24:55;4.67;;;4.17;;
14191;SDS011;7177;48.572;7.838;2024-01-06T13:27:21;6.20;;;5.20;;
14191;SDS011;7177;48.572;7.838;2024-01-06T13:29:47;5.77;;;5.10;;
14191;SDS011;7177;48.572;7.838;2024-01-06T13:32:12;6.57;;;5.60;;
14191;SDS011;7177;48.572;7.838;2024-01-06T13:34:38;7.63;;;5.37;;
14191;SDS011;7177;48.572;7.838;2024-01-06T13:37:04;5.53;;;4.83;;
14191;SDS011;7177;48.572;7.838;2024-01-06T13:39:31;6.57;;;4.87;;
14191;SDS011;7177;48.572;7.838;2024-01-06T13:41:57;5.23;;;4.73;;
14191;SDS011;7177;48.572;7.838;2024-01-06T13:44:23;5.53;;;4.63;;
14191;SDS011;7177;48.572;7.838;2024-01-06T13:46:48;9.53;;;5.13;;
14191;SDS011;7177;48.572;7.838;2024-01-06T13:49:16;6.17;;;5.23;;
14191;SDS011;7177;48.572;7.838;2024-01-06T13:51:42;7.17;;;5.13;;
14191;SDS011;7177;48.572;7.838;2024-01-06T13:54:08;6.63;;;5.40;;
14191;SDS011;7177;48.572;7.838;2024-01-06T13:56:34;7.07;;;5.17;;
14191;SDS011;7177;48.572;7.838;2024-01-06T13:59:00;6.03;;;5.43;;
14191;SDS011;7177;48.572;7.838;2024-01-06T14:01:25;5.70;;;5.10;;
14191;SDS011;7177;48.572;7.838;2024-01-06T14:03:51;6.73;;;5.47;;
14191;SDS011;7177;48.572;7.838;2024-01-06T14:06:23;8.20;;;5.90;;
14191;SDS011;7177;48.572;7.838;2024-01-06T14:08:50;8.60;;;6.10;;
14191;SDS011;7177;48.572;7.838;2024-01-06T14:11:17;7.70;;;6.13;;
14191;SDS011;7177;48.572;7.838;2024-01-06T14:13:43;9.57;;;5.63;;
14191;SDS011;7177;48.572;7.838;2024-01-06T14:16:13;9.83;;;5.83;;
14191;SDS011;7177;48.572;7.838;2024-01-06T14:18:39;6.83;;;5.60;;
14191;SDS011;7177;48.572;7.838;2024-01-06T14:21:04;5.83;;;5.23;;
14191;SDS011;7177;48.572;7.838;2024-01-06T14:23:30;6.30;;;5.57;;
14191;SDS011;7177;48.572;7.838;2024-01-06T14:25:57;5.53;;;4.90;;
14191;SDS011;7177;48.572;7.838;2024-01-06T14:28:23;5.37;;;4.70;;
14191;SDS011;7177;48.572;7.838;2024-01-06T14:30:49;5.60;;;5.10;;
14191;SDS011;7177;48.572;7.838;2024-01-06T14:33:15;6.97;;;4.83;;
14191;SDS011;7177;48.572;7.838;2024-01-06T14:35:40;5.43;;;4.80;;
14191;SDS011;7177;48.572;7.838;2024-01-06T14:38:07;5.53;;;4.77;;
14191;SDS011;7177;48.572;7.838;2024-01-06T14:40:32;5.63;;;4.40;;
14191;SDS011;7177;48.572;7.838;2024-01-06T14:42:58;5.60;;;4.70;;
14191;SDS011;7177;48.572;7.838;2024-01-06T14:45:27;6.73;;;4.53;;
14191;SDS011;7177;48.572;7.838;2024-01-06T14:47:52;7.03;;;4.30;;
14191;SDS011;7177;48.572;7.838;2024-01-06T14:50:18;6.67;;;4.43;;